ESOK 200520Z 16007KT CAVOK 18/15 Q1005